createdAt,value
2022-08-20T00:02:16.834Z,24.50
2022-08-20T00:04:45.926Z,24.25
2022-08-20T00:07:15.246Z,24.07
2022-08-20T00:09:43.851Z,24.42
2022-08-20T00:12:13.483Z,24.73
2022-08-20T00:14:42.085Z,24.88
2022-08-20T00:17:11.913Z,24.96
2022-08-20T00:19:40.467Z,24.97
2022-08-20T00:22:09.026Z,24.82
2022-08-20T00:24:37.381Z,25.00
2022-08-20T00:27:05.955Z,25.01
2022-08-20T00:29:34.312Z,24.80
2022-08-20T00:32:02.848Z,24.90
2022-08-20T00:34:32.632Z,24.73
2022-08-20T00:37:01.015Z,24.65
2022-08-20T00:39:29.432Z,24.80
2022-08-20T00:41:57.824Z,24.80
2022-08-20T00:44:26.349Z,24.77
2022-08-20T00:46:55.792Z,24.66
2022-08-20T00:49:28.117Z,24.82
2022-08-20T00:52:02.310Z,24.91
2022-08-20T00:54:36.687Z,24.81
2022-08-20T00:57:09.932Z,24.68
2022-08-20T00:59:41.879Z,24.66
2022-08-20T01:02:17.610Z,24.64
2022-08-20T01:04:49.162Z,24.39
2022-08-20T01:07:20.654Z,24.23
2022-08-20T01:09:58.174Z,24.48
2022-08-20T01:12:29.105Z,24.61
2022-08-20T01:15:00.130Z,24.64
2022-08-20T01:17:32.631Z,24.64
2022-08-20T01:20:06.236Z,24.52
2022-08-20T01:22:56.012Z,24.00
2022-08-20T01:25:31.966Z,24.35
2022-08-20T01:28:02.671Z,24.33
2022-08-20T01:30:33.146Z,24.09
2022-08-20T01:33:02.522Z,24.10
2022-08-20T01:35:31.292Z,24.12
2022-08-20T01:37:59.764Z,23.98
2022-08-20T01:40:45.733Z,23.63
2022-08-20T01:43:15.973Z,23.38
2022-08-20T01:45:45.880Z,23.65
2022-08-20T01:48:19.136Z,23.80
2022-08-20T01:50:56.713Z,23.89
2022-08-20T01:53:33.625Z,23.86
2022-08-20T01:56:03.026Z,23.61
2022-08-20T01:58:33.477Z,23.74
2022-08-20T02:01:01.872Z,23.94
2022-08-20T02:03:34.823Z,23.55
2022-08-20T02:06:06.529Z,24.02
2022-08-20T02:08:35.056Z,24.13
2022-08-20T02:11:03.472Z,24.11
2022-08-20T02:13:33.311Z,23.83
2022-08-20T02:16:01.777Z,24.17
2022-08-20T02:18:30.090Z,24.22
2022-08-20T02:20:58.577Z,24.23
2022-08-20T02:23:27.038Z,24.09
2022-08-20T02:25:55.714Z,24.07
2022-08-20T02:28:24.173Z,23.73
2022-08-20T02:30:55.496Z,23.73
2022-08-20T02:33:24.678Z,24.03
2022-08-20T02:35:56.635Z,24.06
2022-08-20T02:38:25.512Z,24.14
2022-08-20T02:40:54.248Z,23.79
2022-08-20T02:43:22.597Z,23.57
2022-08-20T02:45:51.734Z,23.54
2022-08-20T02:48:23.353Z,23.38
2022-08-20T02:50:54.373Z,23.75
2022-08-20T02:53:23.178Z,23.81
2022-08-20T02:55:51.980Z,23.82
2022-08-20T02:58:21.347Z,23.84
2022-08-20T03:00:51.044Z,23.80
2022-08-20T03:03:22.899Z,23.78
2022-08-20T03:05:54.891Z,23.87
2022-08-20T03:08:24.708Z,23.38
2022-08-20T03:10:53.748Z,23.55
2022-08-20T03:13:22.855Z,23.43
2022-08-20T03:15:56.603Z,23.73
2022-08-20T03:18:31.803Z,23.90
2022-08-20T03:21:00.272Z,23.97
2022-08-20T03:23:28.900Z,23.95
2022-08-20T03:25:57.321Z,23.06
2022-08-20T03:28:25.780Z,22.57
2022-08-20T03:30:56.639Z,22.70
2022-08-20T03:33:25.400Z,22.42
2022-08-20T03:35:55.346Z,22.97
2022-08-20T03:38:32.320Z,22.26
2022-08-20T03:41:02.284Z,23.07
2022-08-20T03:43:31.253Z,23.13
2022-08-20T03:45:59.759Z,23.11
2022-08-20T03:48:28.428Z,23.13
2022-08-20T03:51:00.929Z,23.08
2022-08-20T03:53:31.723Z,23.17
2022-08-20T03:56:04.521Z,22.82
2022-08-20T03:58:36.517Z,22.31
2022-08-20T04:01:06.796Z,22.29
2022-08-20T04:03:35.660Z,22.11
2022-08-20T04:06:05.783Z,22.52
2022-08-20T04:08:34.646Z,22.97
2022-08-20T04:11:03.155Z,22.42
2022-08-20T04:13:32.302Z,23.13
2022-08-20T04:16:04.008Z,23.49
2022-08-20T04:18:33.181Z,23.34
2022-08-20T04:21:01.837Z,19.85
2022-08-20T04:23:32.178Z,23.49
2022-08-20T04:26:01.608Z,23.21
2022-08-20T04:28:30.192Z,21.84
2022-08-20T04:31:01.236Z,22.95
2022-08-20T04:33:33.802Z,21.99
2022-08-20T04:36:06.411Z,21.16
2022-08-20T04:38:47.880Z,20.98
2022-08-20T04:41:22.358Z,21.07
2022-08-20T04:43:53.188Z,21.10
2022-08-20T04:46:23.721Z,21.75
2022-08-20T04:48:52.235Z,21.53
2022-08-20T04:51:23.136Z,20.71
2022-08-20T04:53:54.556Z,21.97
2022-08-20T04:56:24.705Z,21.95
2022-08-20T04:58:54.495Z,22.32
2022-08-20T05:01:24.312Z,21.42
2022-08-20T05:03:55.083Z,21.48
2022-08-20T05:06:25.990Z,22.23
2022-08-20T05:08:56.597Z,22.56
2022-08-20T05:11:33.168Z,22.73
2022-08-20T05:14:03.819Z,22.53
2022-08-20T05:16:38.113Z,23.08
2022-08-20T05:19:08.921Z,22.87
2022-08-20T05:21:37.872Z,23.29
2022-08-20T05:24:10.299Z,23.40
2022-08-20T05:26:38.981Z,23.48
2022-08-20T05:29:08.039Z,22.78
2022-08-20T05:31:38.544Z,21.27
2022-08-20T05:34:10.349Z,22.34
2022-08-20T05:36:39.908Z,22.36
2022-08-20T05:39:10.557Z,22.63
2022-08-20T05:41:39.258Z,22.63
2022-08-20T05:44:11.279Z,23.22
2022-08-20T05:46:41.069Z,23.58
2022-08-20T05:49:09.789Z,23.61
2022-08-20T05:51:38.806Z,23.76
2022-08-20T05:54:08.308Z,23.91
2022-08-20T05:56:38.350Z,24.27
2022-08-20T05:59:09.671Z,24.24
2022-08-20T06:01:39.871Z,24.13
2022-08-20T06:04:26.273Z,24.42
2022-08-20T06:06:57.052Z,24.60
2022-08-20T06:09:30.678Z,24.83
2022-08-20T06:12:02.425Z,24.86
2022-08-20T06:14:31.354Z,25.10
2022-08-20T06:17:05.600Z,25.17
2022-08-20T06:19:35.133Z,25.43
2022-08-20T06:22:18.317Z,26.03
2022-08-20T06:24:52.695Z,25.82
2022-08-20T06:27:22.882Z,26.43
2022-08-20T06:29:52.084Z,26.26
2022-08-20T06:32:32.235Z,26.16
2022-08-20T06:35:03.706Z,26.86
2022-08-20T06:37:33.956Z,27.04
2022-08-20T06:40:06.172Z,26.98
2022-08-20T06:42:36.104Z,26.83
2022-08-20T06:45:06.035Z,27.41
2022-08-20T06:47:35.404Z,28.07
2022-08-20T06:50:03.779Z,28.08
2022-08-20T06:52:52.253Z,28.81
2022-08-20T06:55:21.046Z,29.07
2022-08-20T06:57:58.211Z,29.72
2022-08-20T07:00:27.847Z,29.28
2022-08-20T07:02:56.472Z,29.69
2022-08-20T07:05:25.000Z,29.69
2022-08-20T07:07:53.444Z,29.74
2022-08-20T07:10:24.844Z,29.92
2022-08-20T07:12:54.753Z,29.88
2022-08-20T07:15:25.897Z,29.97
2022-08-20T07:18:00.863Z,30.64
2022-08-20T07:20:30.604Z,30.85
2022-08-20T07:22:59.084Z,31.41
2022-08-20T07:25:27.821Z,31.95
2022-08-20T07:28:01.909Z,31.41
2022-08-20T07:30:57.064Z,31.31
2022-08-20T07:33:28.204Z,31.77
2022-08-20T07:35:57.432Z,31.75
2022-08-20T07:38:28.174Z,31.85
2022-08-20T07:40:58.937Z,32.08
2022-08-20T07:43:29.433Z,31.47
2022-08-20T07:46:01.259Z,32.13
2022-08-20T07:48:32.031Z,32.45
2022-08-20T07:51:03.071Z,33.10
2022-08-20T07:53:35.871Z,32.09
2022-08-20T07:56:08.217Z,31.99
2022-08-20T07:58:39.860Z,33.30
2022-08-20T08:01:10.817Z,32.80
2022-08-20T08:03:49.922Z,33.39
2022-08-20T08:06:29.486Z,32.57
2022-08-20T08:09:02.529Z,33.42
2022-08-20T08:11:32.486Z,33.84
2022-08-20T08:14:02.566Z,33.66
2022-08-20T08:16:32.738Z,33.06
2022-08-20T08:19:02.116Z,32.86
2022-08-20T08:21:32.292Z,33.64
2022-08-20T08:24:00.760Z,34.01
2022-08-20T08:26:29.587Z,34.51
2022-08-20T08:28:58.432Z,34.87
2022-08-20T08:31:28.408Z,33.80
2022-08-20T08:33:56.901Z,34.38
2022-08-20T08:36:27.412Z,34.54
2022-08-20T08:38:56.749Z,34.25
2022-08-20T08:41:31.536Z,33.96
2022-08-20T08:44:06.141Z,34.19
2022-08-20T08:46:41.237Z,34.64
2022-08-20T08:49:13.901Z,34.62
2022-08-20T08:51:44.310Z,34.65
2022-08-20T08:54:17.693Z,35.06
2022-08-20T08:56:49.751Z,35.63
2022-08-20T08:59:20.241Z,36.20
2022-08-20T09:01:54.244Z,36.28
2022-08-20T09:04:29.266Z,36.34
2022-08-20T09:06:57.722Z,37.12
2022-08-20T09:09:29.152Z,37.72
2022-08-20T09:12:03.155Z,37.73
2022-08-20T09:14:31.496Z,37.48
2022-08-20T09:17:01.308Z,37.45
2022-08-20T09:19:29.849Z,36.97
2022-08-20T09:21:58.439Z,37.40
2022-08-20T09:24:27.097Z,37.22
2022-08-20T09:26:55.402Z,37.93
2022-08-20T09:29:23.841Z,37.77
2022-08-20T09:31:52.200Z,37.82
2022-08-20T09:34:22.373Z,37.02
2022-08-20T09:36:50.786Z,36.57
2022-08-20T09:39:19.214Z,36.82
2022-08-20T09:41:47.594Z,35.62
2022-08-20T09:44:15.913Z,35.04
2022-08-20T09:46:44.316Z,35.18
2022-08-20T09:49:12.717Z,35.35
2022-08-20T09:51:42.468Z,36.26
2022-08-20T09:54:10.957Z,36.65
2022-08-20T09:56:39.433Z,37.18
2022-08-20T09:59:08.834Z,37.46
2022-08-20T10:01:37.364Z,38.11
2022-08-20T10:04:06.089Z,37.86
2022-08-20T10:06:37.713Z,37.57
2022-08-20T10:09:08.044Z,37.26
2022-08-20T10:11:36.396Z,37.71
2022-08-20T10:14:05.068Z,38.56
2022-08-20T10:16:33.580Z,38.56
2022-08-20T10:19:02.113Z,38.61
2022-08-20T10:21:34.309Z,38.07
2022-08-20T10:24:05.272Z,36.77
2022-08-20T10:26:35.172Z,38.35
2022-08-20T10:29:03.553Z,38.67
2022-08-20T10:31:31.927Z,39.15
2022-08-20T10:34:00.356Z,39.22
2022-08-20T10:36:28.876Z,39.80
2022-08-20T10:38:57.341Z,39.46
2022-08-20T10:41:25.721Z,38.76
2022-08-20T10:43:55.461Z,39.39
2022-08-20T10:46:23.876Z,39.46
2022-08-20T10:48:52.384Z,38.97
2022-08-20T10:51:20.783Z,39.89
2022-08-20T10:54:00.860Z,38.46
2022-08-20T10:56:29.556Z,37.91
2022-08-20T10:58:59.381Z,39.31
2022-08-20T11:01:31.334Z,39.10
2022-08-20T11:04:01.583Z,39.32
2022-08-20T11:06:29.993Z,39.44
2022-08-20T11:08:58.388Z,38.87
2022-08-20T11:11:26.837Z,38.44
2022-08-20T11:13:55.202Z,37.55
2022-08-20T11:16:26.341Z,38.07
2022-08-20T11:18:54.754Z,38.05
2022-08-20T11:21:23.146Z,38.59
2022-08-20T11:23:51.533Z,39.42
2022-08-20T11:26:23.548Z,39.29
2022-08-20T11:28:52.113Z,38.72
2022-08-20T11:31:20.564Z,38.26
2022-08-20T11:33:50.441Z,38.12
2022-08-20T11:36:18.873Z,37.99
2022-08-20T11:38:47.296Z,38.08
2022-08-20T11:41:15.933Z,37.70
2022-08-20T11:43:59.447Z,37.47
2022-08-20T11:46:33.881Z,38.72
2022-08-20T11:49:03.869Z,38.64
2022-08-20T11:51:39.074Z,38.41
2022-08-20T11:54:18.574Z,38.76
2022-08-20T11:56:47.029Z,37.67
2022-08-20T11:59:15.509Z,37.91
2022-08-20T12:02:02.391Z,38.03
2022-08-20T12:04:33.925Z,37.98
2022-08-20T12:07:13.864Z,38.40
2022-08-20T12:09:50.602Z,37.67
2022-08-20T12:12:22.490Z,38.09
2022-08-20T12:14:50.838Z,37.46
2022-08-20T12:17:24.031Z,36.71
2022-08-20T12:19:56.178Z,37.21
2022-08-20T12:22:25.604Z,37.23
2022-08-20T12:24:54.980Z,37.67
2022-08-20T12:27:26.859Z,37.68
2022-08-20T12:29:57.561Z,38.10
2022-08-20T12:32:27.782Z,38.40
2022-08-20T12:34:57.644Z,36.97
2022-08-20T12:37:27.830Z,36.48
2022-08-20T12:39:57.915Z,36.26
2022-08-20T12:42:27.150Z,36.80
2022-08-20T12:44:55.608Z,37.02
2022-08-20T12:47:26.332Z,37.31
2022-08-20T12:49:56.846Z,36.88
2022-08-20T12:52:27.060Z,37.04
2022-08-20T12:54:56.517Z,37.12
2022-08-20T12:57:29.233Z,37.33
2022-08-20T12:59:59.019Z,37.07
2022-08-20T13:02:28.001Z,36.89
2022-08-20T13:04:58.288Z,38.02
2022-08-20T13:07:30.128Z,37.76
2022-08-20T13:10:00.022Z,37.15
2022-08-20T13:12:29.955Z,36.64
2022-08-20T13:14:58.317Z,36.75
2022-08-20T13:17:37.975Z,36.20
2022-08-20T13:20:10.926Z,36.72
2022-08-20T13:22:41.052Z,37.06
2022-08-20T13:25:11.497Z,37.23
2022-08-20T13:27:42.390Z,36.09
2022-08-20T13:30:13.503Z,36.14
2022-08-20T13:32:42.220Z,36.52
2022-08-20T13:35:12.699Z,36.82
2022-08-20T13:37:44.091Z,37.03
2022-08-20T13:40:14.015Z,35.85
2022-08-20T13:42:42.542Z,35.63
2022-08-20T13:45:12.065Z,36.34
2022-08-20T13:47:42.175Z,36.56
2022-08-20T13:50:13.384Z,36.91
2022-08-20T13:52:43.692Z,37.56
2022-08-20T13:55:14.360Z,37.69
2022-08-20T13:57:43.857Z,37.35
2022-08-20T14:00:15.951Z,37.58
2022-08-20T14:02:44.465Z,37.38
2022-08-20T14:05:14.597Z,38.28
2022-08-20T14:07:50.318Z,38.28
2022-08-20T14:10:24.429Z,38.13
2022-08-20T14:12:53.057Z,37.77
2022-08-20T14:15:21.624Z,37.35
2022-08-20T14:17:53.355Z,37.59
2022-08-20T14:20:25.983Z,36.88
2022-08-20T14:22:59.622Z,36.42
2022-08-20T14:25:28.838Z,36.54
2022-08-20T14:27:57.776Z,36.61
2022-08-20T14:30:28.769Z,36.36
2022-08-20T14:32:57.864Z,36.09
2022-08-20T14:35:26.677Z,35.45
2022-08-20T14:37:56.733Z,34.91
2022-08-20T14:40:28.074Z,34.28
2022-08-20T14:42:57.253Z,34.18
2022-08-20T14:45:25.817Z,34.82
2022-08-20T14:47:57.235Z,33.99
2022-08-20T14:50:27.638Z,34.24
2022-08-20T14:52:57.191Z,33.98
2022-08-20T14:55:29.274Z,34.08
2022-08-20T14:57:57.893Z,34.18
2022-08-20T15:00:29.127Z,34.04
2022-08-20T15:02:58.296Z,34.49
2022-08-20T15:05:27.227Z,34.67
2022-08-20T15:07:59.428Z,34.14
2022-08-20T15:10:32.864Z,33.80
2022-08-20T15:13:02.657Z,33.88
2022-08-20T15:15:31.436Z,34.22
2022-08-20T15:18:01.834Z,33.92
2022-08-20T15:20:33.343Z,33.97
2022-08-20T15:23:02.549Z,34.20
2022-08-20T15:25:37.071Z,34.32
2022-08-20T15:28:08.838Z,34.45
2022-08-20T15:30:41.990Z,34.18
2022-08-20T15:33:11.654Z,33.79
2022-08-20T15:35:43.698Z,34.04
2022-08-20T15:38:13.094Z,34.22
2022-08-20T15:40:43.647Z,34.64
2022-08-20T15:43:12.525Z,33.59
2022-08-20T15:45:45.332Z,34.07
2022-08-20T15:48:16.839Z,33.59
2022-08-20T15:51:27.646Z,33.47
2022-08-20T15:54:01.189Z,33.32
2022-08-20T15:56:54.989Z,33.66
2022-08-20T15:59:55.473Z,33.73
2022-08-20T16:02:47.892Z,33.43
2022-08-20T16:05:25.971Z,33.13
2022-08-20T16:08:06.397Z,33.23
2022-08-20T16:10:47.223Z,33.10
2022-08-20T16:13:28.585Z,32.93
2022-08-20T16:16:01.004Z,32.98
2022-08-20T16:18:33.806Z,32.37
2022-08-20T16:21:04.013Z,32.26
2022-08-20T16:23:36.513Z,32.32
2022-08-20T16:26:15.922Z,31.76
2022-08-20T16:28:54.762Z,31.24
2022-08-20T16:31:29.729Z,31.80
2022-08-20T16:34:25.725Z,31.92
2022-08-20T16:37:03.497Z,31.50
2022-08-20T16:39:39.170Z,31.28
2022-08-20T16:42:11.448Z,31.22
2022-08-20T16:44:48.277Z,31.39
2022-08-20T16:47:21.188Z,31.13
2022-08-20T16:49:54.969Z,31.10
2022-08-20T16:52:29.414Z,31.09
2022-08-20T16:55:01.864Z,30.82
2022-08-20T16:57:30.712Z,31.01
2022-08-20T17:00:10.654Z,31.04
2022-08-20T17:02:56.721Z,30.49
2022-08-20T17:05:29.325Z,30.39
2022-08-20T17:08:04.119Z,30.43
2022-08-20T17:10:37.885Z,30.15
2022-08-20T17:13:20.901Z,29.91
2022-08-20T17:15:58.375Z,29.96
2022-08-20T17:18:29.086Z,29.88
2022-08-20T17:21:02.025Z,30.00
2022-08-20T17:23:49.115Z,30.03
2022-08-20T17:26:29.771Z,30.37
2022-08-20T17:29:01.479Z,29.86
2022-08-20T17:31:38.922Z,30.26
2022-08-20T17:34:16.538Z,30.29
2022-08-20T17:36:57.158Z,30.30
2022-08-20T17:39:28.004Z,30.02
2022-08-20T17:42:05.279Z,30.14
2022-08-20T17:44:38.257Z,29.86
2022-08-20T17:47:12.771Z,29.39
2022-08-20T17:49:54.967Z,28.64
2022-08-20T17:52:37.784Z,29.13
2022-08-20T17:55:07.397Z,29.04
2022-08-20T17:57:41.584Z,28.98
2022-08-20T18:00:15.651Z,29.08
2022-08-20T18:02:45.869Z,28.89
2022-08-20T18:05:20.102Z,28.61
2022-08-20T18:08:13.638Z,28.69
2022-08-20T18:10:50.917Z,28.56
2022-08-20T18:13:21.553Z,28.66
2022-08-20T18:15:55.080Z,28.97
2022-08-20T18:18:56.469Z,28.21
2022-08-20T18:21:57.727Z,27.54
2022-08-20T18:24:35.292Z,27.46
2022-08-20T18:27:08.796Z,27.50
2022-08-20T18:29:42.510Z,26.60
2022-08-20T18:32:26.175Z,26.46
2022-08-20T18:35:08.077Z,26.69
2022-08-20T18:37:36.611Z,26.05
2022-08-20T18:40:28.963Z,25.82
2022-08-20T18:42:59.079Z,25.69
2022-08-20T18:45:32.126Z,25.41
2022-08-20T18:48:01.903Z,25.11
2022-08-20T18:50:43.853Z,24.84
2022-08-20T18:53:18.974Z,24.59
2022-08-20T18:55:49.400Z,24.12
2022-08-20T18:58:31.973Z,23.86
2022-08-20T19:01:03.207Z,23.42
2022-08-20T19:03:38.643Z,23.54
2022-08-20T19:06:24.186Z,23.67
2022-08-20T19:09:00.716Z,23.18
2022-08-20T19:12:11.482Z,23.55
2022-08-20T19:14:55.596Z,23.70
2022-08-20T19:17:38.298Z,23.19
2022-08-20T19:20:11.833Z,21.85
2022-08-20T19:22:44.062Z,22.94
2022-08-20T19:25:23.898Z,22.91
2022-08-20T19:27:52.724Z,22.66
2022-08-20T19:30:34.504Z,22.84
2022-08-20T19:33:03.192Z,21.48
2022-08-20T19:35:32.333Z,22.68
2022-08-20T19:38:03.459Z,22.66
2022-08-20T19:40:35.141Z,22.27
2022-08-20T19:43:13.408Z,22.92
2022-08-20T19:45:46.804Z,22.77
2022-08-20T19:48:29.139Z,22.49
2022-08-20T19:51:06.684Z,22.44
2022-08-20T19:53:38.503Z,22.62
2022-08-20T19:56:12.108Z,22.71
2022-08-20T19:58:41.541Z,22.68
2022-08-20T20:01:16.666Z,23.00
2022-08-20T20:03:57.030Z,23.00
2022-08-20T20:06:27.064Z,22.81
2022-08-20T20:09:00.172Z,22.83
2022-08-20T20:11:35.901Z,22.37
2022-08-20T20:14:09.115Z,22.05
2022-08-20T20:16:38.734Z,21.62
2022-08-20T20:19:26.862Z,22.25
2022-08-20T20:22:17.339Z,21.46
2022-08-20T20:24:58.215Z,22.11
2022-08-20T20:27:28.983Z,22.03
2022-08-20T20:30:01.540Z,22.14
2022-08-20T20:32:30.851Z,22.77
2022-08-20T20:35:01.760Z,22.70
2022-08-20T20:37:50.732Z,23.17
2022-08-20T20:40:27.817Z,22.88
2022-08-20T20:43:02.960Z,23.15
2022-08-20T20:45:34.668Z,23.11
2022-08-20T20:48:18.484Z,23.38
2022-08-20T20:50:48.763Z,23.53
2022-08-20T20:53:35.076Z,23.61
2022-08-20T20:56:35.001Z,23.50
2022-08-20T20:59:06.819Z,23.58
2022-08-20T21:01:49.391Z,23.44
2022-08-20T21:04:19.996Z,23.15
2022-08-20T21:06:48.444Z,22.12
2022-08-20T21:09:16.990Z,22.77
2022-08-20T21:11:47.311Z,23.09
2022-08-20T21:14:16.487Z,23.28
2022-08-20T21:16:45.615Z,22.91
2022-08-20T21:19:14.286Z,22.02
2022-08-20T21:21:43.853Z,21.89
2022-08-20T21:24:12.762Z,22.08
2022-08-20T21:26:41.565Z,21.58
2022-08-20T21:29:14.797Z,21.37
2022-08-20T21:31:45.700Z,21.57
2022-08-20T21:34:17.506Z,22.11
2022-08-20T21:36:46.569Z,22.30
2022-08-20T21:39:15.190Z,22.36
2022-08-20T21:41:44.261Z,22.28
2022-08-20T21:44:22.394Z,22.41
2022-08-20T21:46:54.734Z,22.74
2022-08-20T21:49:23.703Z,22.77
2022-08-20T21:51:53.063Z,22.85
2022-08-20T21:54:22.631Z,22.62
2022-08-20T21:57:00.205Z,22.20
2022-08-20T21:59:30.557Z,22.86
2022-08-20T22:02:00.685Z,23.19
2022-08-20T22:04:33.474Z,22.90
2022-08-20T22:07:04.121Z,23.04
2022-08-20T22:09:34.020Z,22.52
2022-08-20T22:12:02.808Z,22.05
2022-08-20T22:14:33.228Z,21.80
2022-08-20T22:17:01.659Z,21.50
2022-08-20T22:19:30.083Z,21.64
2022-08-20T22:21:58.744Z,21.43
2022-08-20T22:24:29.461Z,22.07
2022-08-20T22:26:58.232Z,21.86
2022-08-20T22:29:26.817Z,21.55
2022-08-20T22:31:56.699Z,21.38
2022-08-20T22:34:25.141Z,21.56
2022-08-20T22:36:55.808Z,22.02
2022-08-20T22:39:24.181Z,21.76
2022-08-20T22:41:53.203Z,22.18
2022-08-20T22:44:21.722Z,22.57
2022-08-20T22:46:55.164Z,22.04
2022-08-20T22:49:30.448Z,21.79
2022-08-20T22:51:58.969Z,21.75
2022-08-20T22:54:27.525Z,21.95
2022-08-20T22:56:56.670Z,21.92
2022-08-20T22:59:25.997Z,21.07
2022-08-20T23:01:55.129Z,21.85
2022-08-20T23:04:28.942Z,22.23
2022-08-20T23:06:58.509Z,22.04
2022-08-20T23:09:27.736Z,22.81
2022-08-20T23:11:58.782Z,22.42
2022-08-20T23:14:27.501Z,22.36
2022-08-20T23:17:02.427Z,22.54
2022-08-20T23:19:32.379Z,22.69
2022-08-20T23:22:00.786Z,22.59
2022-08-20T23:24:29.175Z,22.60
2022-08-20T23:26:57.667Z,22.68
2022-08-20T23:29:27.080Z,22.23
2022-08-20T23:31:56.355Z,22.61
2022-08-20T23:34:25.100Z,22.39
2022-08-20T23:36:57.047Z,22.15
2022-08-20T23:39:26.585Z,22.03
2022-08-20T23:41:55.329Z,22.01
2022-08-20T23:44:27.026Z,21.67
2022-08-20T23:46:57.158Z,22.56
2022-08-20T23:49:25.682Z,22.52
2022-08-20T23:51:55.510Z,22.74
2022-08-20T23:54:24.036Z,22.77
2022-08-20T23:56:56.871Z,22.93
2022-08-20T23:59:26.027Z,22.37
